sensor_id;sensor_type;location;lat;lon;timestamp;temperature;humidity
67557;DHT22;54387;53.526;49.300;2023-03-01T00:00:47;-2.20;67.70
67557;DHT22;54387;53.526;49.300;2023-03-01T00:03:13;-2.20;67.80
67557;DHT22;54387;53.526;49.300;2023-03-01T00:05:43;-2.20;67.90
67557;DHT22;54387;53.526;49.300;2023-03-01T00:08:10;-2.20;68.00
67557;DHT22;54387;53.526;49.300;2023-03-01T00:10:36;-2.20;68.10
67557;DHT22;54387;53.526;49.300;2023-03-01T00:13:02;-2.30;68.10
67557;DHT22;54387;53.526;49.300;2023-03-01T00:15:31;-2.20;68.20
67557;DHT22;54387;53.526;49.300;2023-03-01T00:17:57;-2.20;68.20
67557;DHT22;54387;53.526;49.300;2023-03-01T00:20:23;-2.20;68.20
67557;DHT22;54387;53.526;49.300;2023-03-01T00:22:50;-2.20;68.20
67557;DHT22;54387;53.526;49.300;2023-03-01T00:25:16;-2.10;68.30
67557;DHT22;54387;53.526;49.300;2023-03-01T00:27:42;-2.10;68.20
67557;DHT22;54387;53.526;49.300;2023-03-01T00:30:08;-2.10;68.30
67557;DHT22;54387;53.526;49.300;2023-03-01T00:32:35;-2.00;68.20
67557;DHT22;54387;53.526;49.300;2023-03-01T00:35:01;-2.00;68.20
67557;DHT22;54387;53.526;49.300;2023-03-01T00:37:27;-2.00;68.20
67557;DHT22;54387;53.526;49.300;2023-03-01T00:39:53;-2.00;68.10
67557;DHT22;54387;53.526;49.300;2023-03-01T00:42:20;-1.90;68.10
67557;DHT22;54387;53.526;49.300;2023-03-01T00:44:46;-1.90;68.10
67557;DHT22;54387;53.526;49.300;2023-03-01T00:47:12;-1.90;68.10
67557;DHT22;54387;53.526;49.300;2023-03-01T00:49:39;-1.90;68.10
67557;DHT22;54387;53.526;49.300;2023-03-01T00:52:06;-1.90;68.00
67557;DHT22;54387;53.526;49.300;2023-03-01T00:54:32;-1.80;68.10
67557;DHT22;54387;53.526;49.300;2023-03-01T00:56:58;-1.80;68.10
67557;DHT22;54387;53.526;49.300;2023-03-01T00:59:25;-1.80;67.90
67557;DHT22;54387;53.526;49.300;2023-03-01T01:01:51;-1.80;68.10
67557;DHT22;54387;53.526;49.300;2023-03-01T01:04:17;-1.80;68.10
67557;DHT22;54387;53.526;49.300;2023-03-01T01:06:46;-1.80;68.10
67557;DHT22;54387;53.526;49.300;2023-03-01T01:09:13;-1.80;68.10
67557;DHT22;54387;53.526;49.300;2023-03-01T01:11:46;-1.80;68.10
67557;DHT22;54387;53.526;49.300;2023-03-01T01:14:13;-1.90;68.10
67557;DHT22;54387;53.526;49.300;2023-03-01T01:16:39;-1.80;68.20
67557;DHT22;54387;53.526;49.300;2023-03-01T01:19:05;-1.80;68.30
67557;DHT22;54387;53.526;49.300;2023-03-01T01:21:31;-1.80;68.30
67557;DHT22;54387;53.526;49.300;2023-03-01T01:23:57;-1.80;68.30
67557;DHT22;54387;53.526;49.300;2023-03-01T01:26:24;-1.80;68.30
67557;DHT22;54387;53.526;49.300;2023-03-01T01:28:51;-1.80;68.30
67557;DHT22;54387;53.526;49.300;2023-03-01T01:31:17;-1.70;68.40
67557;DHT22;54387;53.526;49.300;2023-03-01T01:33:44;-1.70;68.60
67557;DHT22;54387;53.526;49.300;2023-03-01T01:36:10;-1.70;68.30
67557;DHT22;54387;53.526;49.300;2023-03-01T01:38:36;-1.70;68.30
67557;DHT22;54387;53.526;49.300;2023-03-01T01:41:02;-1.70;68.30
67557;DHT22;54387;53.526;49.300;2023-03-01T01:43:39;-1.70;68.30
67557;DHT22;54387;53.526;49.300;2023-03-01T01:46:10;-1.60;68.30
67557;DHT22;54387;53.526;49.300;2023-03-01T01:48:41;-1.60;68.20
67557;DHT22;54387;53.526;49.300;2023-03-01T01:51:17;-1.60;68.10
67557;DHT22;54387;53.526;49.300;2023-03-01T01:53:45;-1.60;68.00
67557;DHT22;54387;53.526;49.300;2023-03-01T01:56:12;-1.50;68.00
67557;DHT22;54387;53.526;49.300;2023-03-01T01:58:39;-1.60;67.80
67557;DHT22;54387;53.526;49.300;2023-03-01T02:01:07;-1.60;67.90
67557;DHT22;54387;53.526;49.300;2023-03-01T02:03:33;-1.60;67.80
67557;DHT22;54387;53.526;49.300;2023-03-01T02:06:03;-1.60;67.80
67557;DHT22;54387;53.526;49.300;2023-03-01T02:08:30;-1.50;67.70
67557;DHT22;54387;53.526;49.300;2023-03-01T02:10:57;-1.50;67.60
67557;DHT22;54387;53.526;49.300;2023-03-01T02:13:26;-1.50;67.60
67557;DHT22;54387;53.526;49.300;2023-03-01T02:15:52;-1.50;67.60
67557;DHT22;54387;53.526;49.300;2023-03-01T02:18:18;-1.50;67.60
67557;DHT22;54387;53.526;49.300;2023-03-01T02:21:02;-1.40;67.70
67557;DHT22;54387;53.526;49.300;2023-03-01T02:23:30;-1.40;67.50
67557;DHT22;54387;53.526;49.300;2023-03-01T02:26:07;-1.50;67.40
67557;DHT22;54387;53.526;49.300;2023-03-01T02:28:35;-1.40;67.40
67557;DHT22;54387;53.526;49.300;2023-03-01T02:31:03;-1.40;67.40
67557;DHT22;54387;53.526;49.300;2023-03-01T02:33:49;-1.40;67.40
67557;DHT22;54387;53.526;49.300;2023-03-01T02:36:17;-1.40;67.40
67557;DHT22;54387;53.526;49.300;2023-03-01T02:38:43;-1.40;67.40
67557;DHT22;54387;53.526;49.300;2023-03-01T02:41:10;-1.40;67.40
67557;DHT22;54387;53.526;49.300;2023-03-01T02:43:39;-1.40;67.40
67557;DHT22;54387;53.526;49.300;2023-03-01T02:46:07;-1.30;67.40
67557;DHT22;54387;53.526;49.300;2023-03-01T02:49:16;-1.30;67.40
67557;DHT22;54387;53.526;49.300;2023-03-01T02:54:33;-1.30;67.40
67557;DHT22;54387;53.526;49.300;2023-03-01T02:56:51;-1.20;67.50
67557;DHT22;54387;53.526;49.300;2023-03-01T02:59:19;-1.10;67.50
67557;DHT22;54387;53.526;49.300;2023-03-01T03:01:46;-1.10;67.40
67557;DHT22;54387;53.526;49.300;2023-03-01T03:04:16;-1.10;67.30
67557;DHT22;54387;53.526;49.300;2023-03-01T03:06:44;-1.10;67.20
67557;DHT22;54387;53.526;49.300;2023-03-01T03:09:11;-1.10;67.20
67557;DHT22;54387;53.526;49.300;2023-03-01T03:11:37;-1.20;67.30
67557;DHT22;54387;53.526;49.300;2023-03-01T03:14:05;-1.20;67.10
67557;DHT22;54387;53.526;49.300;2023-03-01T03:16:31;-1.20;67.20
67557;DHT22;54387;53.526;49.300;2023-03-01T03:18:57;-1.10;67.80
67557;DHT22;54387;53.526;49.300;2023-03-01T03:21:32;-1.20;67.20
67557;DHT22;54387;53.526;49.300;2023-03-01T03:23:59;-1.20;67.20
67557;DHT22;54387;53.526;49.300;2023-03-01T03:26:25;-1.20;67.30
67557;DHT22;54387;53.526;49.300;2023-03-01T03:28:51;-1.10;67.40
67557;DHT22;54387;53.526;49.300;2023-03-01T03:31:17;-1.10;67.40
67557;DHT22;54387;53.526;49.300;2023-03-01T03:33:43;-1.10;67.20
67557;DHT22;54387;53.526;49.300;2023-03-01T03:36:14;-1.10;67.10
67557;DHT22;54387;53.526;49.300;2023-03-01T03:38:44;-1.10;67.10
67557;DHT22;54387;53.526;49.300;2023-03-01T03:41:12;-1.10;67.10
67557;DHT22;54387;53.526;49.300;2023-03-01T03:43:38;-1.10;67.10
67557;DHT22;54387;53.526;49.300;2023-03-01T03:46:06;-1.10;67.20
67557;DHT22;54387;53.526;49.300;2023-03-01T03:48:33;-1.10;67.30
67557;DHT22;54387;53.526;49.300;2023-03-01T03:50:59;-1.10;67.40
67557;DHT22;54387;53.526;49.300;2023-03-01T03:53:26;-1.10;67.40
67557;DHT22;54387;53.526;49.300;2023-03-01T03:55:53;-1.10;67.40
67557;DHT22;54387;53.526;49.300;2023-03-01T03:58:20;-1.00;67.40
67557;DHT22;54387;53.526;49.300;2023-03-01T04:00:47;-1.00;67.40
67557;DHT22;54387;53.526;49.300;2023-03-01T04:03:14;-0.90;67.40
67557;DHT22;54387;53.526;49.300;2023-03-01T04:05:41;-0.90;67.30
67557;DHT22;54387;53.526;49.300;2023-03-01T04:08:08;-0.90;67.30
67557;DHT22;54387;53.526;49.300;2023-03-01T04:10:36;-0.80;67.30
67557;DHT22;54387;53.526;49.300;2023-03-01T04:13:03;-0.80;67.10
67557;DHT22;54387;53.526;49.300;2023-03-01T04:15:30;-0.80;67.10
67557;DHT22;54387;53.526;49.300;2023-03-01T04:17:56;-0.70;67.10
67557;DHT22;54387;53.526;49.300;2023-03-01T04:20:23;-0.70;67.00
67557;DHT22;54387;53.526;49.300;2023-03-01T04:25:23;-0.60;66.80
67557;DHT22;54387;53.526;49.300;2023-03-01T04:27:49;-0.60;66.80
67557;DHT22;54387;53.526;49.300;2023-03-01T04:30:15;-0.50;66.70
67557;DHT22;54387;53.526;49.300;2023-03-01T04:32:41;-0.50;66.40
67557;DHT22;54387;53.526;49.300;2023-03-01T04:35:10;-0.60;66.20
67557;DHT22;54387;53.526;49.300;2023-03-01T04:37:36;-0.60;66.30
67557;DHT22;54387;53.526;49.300;2023-03-01T04:40:02;-0.60;65.90
67557;DHT22;54387;53.526;49.300;2023-03-01T04:42:41;-0.70;65.90
67557;DHT22;54387;53.526;49.300;2023-03-01T04:45:08;-0.70;66.00
67557;DHT22;54387;53.526;49.300;2023-03-01T04:47:39;-0.70;65.90
67557;DHT22;54387;53.526;49.300;2023-03-01T04:50:05;-0.70;65.90
67557;DHT22;54387;53.526;49.300;2023-03-01T04:52:31;-0.70;65.80
67557;DHT22;54387;53.526;49.300;2023-03-01T04:54:57;-0.70;65.80
67557;DHT22;54387;53.526;49.300;2023-03-01T04:57:24;-0.60;65.70
67557;DHT22;54387;53.526;49.300;2023-03-01T04:59:50;-0.60;65.70
67557;DHT22;54387;53.526;49.300;2023-03-01T05:02:16;-0.50;65.70
67557;DHT22;54387;53.526;49.300;2023-03-01T05:04:42;-0.50;65.40
67557;DHT22;54387;53.526;49.300;2023-03-01T05:07:08;-0.40;65.40
67557;DHT22;54387;53.526;49.300;2023-03-01T05:09:34;-0.30;65.30
67557;DHT22;54387;53.526;49.300;2023-03-01T05:12:01;-0.30;65.20
67557;DHT22;54387;53.526;49.300;2023-03-01T05:14:27;-0.20;65.20
67557;DHT22;54387;53.526;49.300;2023-03-01T05:16:54;-0.20;65.00
67557;DHT22;54387;53.526;49.300;2023-03-01T05:19:21;-0.20;64.70
67557;DHT22;54387;53.526;49.300;2023-03-01T05:21:48;-0.20;65.10
67557;DHT22;54387;53.526;49.300;2023-03-01T05:24:31;-0.20;64.60
67557;DHT22;54387;53.526;49.300;2023-03-01T05:26:57;-0.10;64.50
67557;DHT22;54387;53.526;49.300;2023-03-01T05:29:24;-0.10;64.40
67557;DHT22;54387;53.526;49.300;2023-03-01T05:31:54;-0.10;64.50
67557;DHT22;54387;53.526;49.300;2023-03-01T05:34:28;-0.10;64.10
67557;DHT22;54387;53.526;49.300;2023-03-01T05:36:55;0.00;64.20
67557;DHT22;54387;53.526;49.300;2023-03-01T05:39:22;0.00;64.10
67557;DHT22;54387;53.526;49.300;2023-03-01T05:41:53;0.00;63.80
67557;DHT22;54387;53.526;49.300;2023-03-01T05:44:20;0.00;64.00
67557;DHT22;54387;53.526;49.300;2023-03-01T05:46:46;0.10;63.90
67557;DHT22;54387;53.526;49.300;2023-03-01T05:49:13;0.20;63.80
67557;DHT22;54387;53.526;49.300;2023-03-01T05:51:39;0.20;63.60
67557;DHT22;54387;53.526;49.300;2023-03-01T05:54:06;0.30;63.50
67557;DHT22;54387;53.526;49.300;2023-03-01T05:56:33;0.30;63.20
67557;DHT22;54387;53.526;49.300;2023-03-01T05:59:00;0.20;63.10
67557;DHT22;54387;53.526;49.300;2023-03-01T06:01:27;0.30;63.30
67557;DHT22;54387;53.526;49.300;2023-03-01T06:03:53;0.40;63.30
67557;DHT22;54387;53.526;49.300;2023-03-01T06:06:19;0.50;63.10
67557;DHT22;54387;53.526;49.300;2023-03-01T06:08:45;0.50;62.90
67557;DHT22;54387;53.526;49.300;2023-03-01T06:11:12;0.50;62.70
67557;DHT22;54387;53.526;49.300;2023-03-01T06:13:38;0.60;62.70
67557;DHT22;54387;53.526;49.300;2023-03-01T06:16:05;0.60;62.50
67557;DHT22;54387;53.526;49.300;2023-03-01T06:18:32;0.60;62.60
67557;DHT22;54387;53.526;49.300;2023-03-01T06:20:58;0.60;62.40
67557;DHT22;54387;53.526;49.300;2023-03-01T06:23:25;0.60;62.20
67557;DHT22;54387;53.526;49.300;2023-03-01T06:25:53;0.50;61.80
67557;DHT22;54387;53.526;49.300;2023-03-01T06:28:19;0.50;61.90
67557;DHT22;54387;53.526;49.300;2023-03-01T06:30:45;0.40;61.90
67557;DHT22;54387;53.526;49.300;2023-03-01T06:33:12;0.40;61.90
67557;DHT22;54387;53.526;49.300;2023-03-01T06:35:38;0.40;62.00
67557;DHT22;54387;53.526;49.300;2023-03-01T06:38:04;0.30;61.80
67557;DHT22;54387;53.526;49.300;2023-03-01T06:40:31;0.30;61.80
67557;DHT22;54387;53.526;49.300;2023-03-01T06:42:57;0.10;61.50
67557;DHT22;54387;53.526;49.300;2023-03-01T06:45:24;-0.10;61.00
67557;DHT22;54387;53.526;49.300;2023-03-01T06:47:50;-0.20;61.30
67557;DHT22;54387;53.526;49.300;2023-03-01T06:50:17;-0.30;61.80
67557;DHT22;54387;53.526;49.300;2023-03-01T06:52:43;-0.40;62.20
67557;DHT22;54387;53.526;49.300;2023-03-01T06:55:11;-0.50;62.60
67557;DHT22;54387;53.526;49.300;2023-03-01T06:57:37;-0.40;63.10
67557;DHT22;54387;53.526;49.300;2023-03-01T07:00:04;-0.30;63.20
67557;DHT22;54387;53.526;49.300;2023-03-01T07:02:31;-0.20;62.60
67557;DHT22;54387;53.526;49.300;2023-03-01T07:04:57;-0.20;62.60
67557;DHT22;54387;53.526;49.300;2023-03-01T07:07:24;-0.10;62.80
67557;DHT22;54387;53.526;49.300;2023-03-01T07:09:50;0.00;62.20
67557;DHT22;54387;53.526;49.300;2023-03-01T07:12:16;-0.10;61.30
67557;DHT22;54387;53.526;49.300;2023-03-01T07:14:43;-0.10;60.60
67557;DHT22;54387;53.526;49.300;2023-03-01T07:17:09;-0.10;60.60
67557;DHT22;54387;53.526;49.300;2023-03-01T07:19:36;-0.10;60.90
67557;DHT22;54387;53.526;49.300;2023-03-01T07:22:03;0.00;60.60
67557;DHT22;54387;53.526;49.300;2023-03-01T07:24:30;0.00;60.50
67557;DHT22;54387;53.526;49.300;2023-03-01T07:26:56;0.10;60.60
67557;DHT22;54387;53.526;49.300;2023-03-01T07:29:22;0.10;60.30
67557;DHT22;54387;53.526;49.300;2023-03-01T07:31:48;0.20;60.50
67557;DHT22;54387;53.526;49.300;2023-03-01T07:34:14;0.30;60.00
67557;DHT22;54387;53.526;49.300;2023-03-01T07:36:41;0.10;58.80
67557;DHT22;54387;53.526;49.300;2023-03-01T07:39:09;0.10;59.60
67557;DHT22;54387;53.526;49.300;2023-03-01T07:41:36;0.10;59.10
67557;DHT22;54387;53.526;49.300;2023-03-01T07:44:02;0.10;58.80
67557;DHT22;54387;53.526;49.300;2023-03-01T07:46:28;0.10;57.30
67557;DHT22;54387;53.526;49.300;2023-03-01T07:48:54;0.20;56.80
67557;DHT22;54387;53.526;49.300;2023-03-01T07:51:21;0.30;55.70
67557;DHT22;54387;53.526;49.300;2023-03-01T07:53:47;0.40;55.90
67557;DHT22;54387;53.526;49.300;2023-03-01T07:56:14;0.30;55.00
67557;DHT22;54387;53.526;49.300;2023-03-01T07:58:42;0.40;54.40
67557;DHT22;54387;53.526;49.300;2023-03-01T08:01:10;0.40;54.20
67557;DHT22;54387;53.526;49.300;2023-03-01T08:03:38;0.30;53.90
67557;DHT22;54387;53.526;49.300;2023-03-01T08:06:05;0.20;53.60
67557;DHT22;54387;53.526;49.300;2023-03-01T08:08:32;0.20;53.70
67557;DHT22;54387;53.526;49.300;2023-03-01T08:10:59;0.20;53.20
67557;DHT22;54387;53.526;49.300;2023-03-01T08:13:26;0.20;52.80
67557;DHT22;54387;53.526;49.300;2023-03-01T08:15:53;0.10;53.40
67557;DHT22;54387;53.526;49.300;2023-03-01T08:18:20;0.20;52.80
67557;DHT22;54387;53.526;49.300;2023-03-01T08:20:48;0.30;52.60
67557;DHT22;54387;53.526;49.300;2023-03-01T08:23:14;0.30;52.50
67557;DHT22;54387;53.526;49.300;2023-03-01T08:25:40;0.10;52.20
67557;DHT22;54387;53.526;49.300;2023-03-01T08:28:06;0.10;52.60
67557;DHT22;54387;53.526;49.300;2023-03-01T08:30:33;0.00;52.20
67557;DHT22;54387;53.526;49.300;2023-03-01T08:33:00;-0.10;52.50
67557;DHT22;54387;53.526;49.300;2023-03-01T08:35:27;-0.20;52.60
67557;DHT22;54387;53.526;49.300;2023-03-01T08:37:53;-0.10;53.10
67557;DHT22;54387;53.526;49.300;2023-03-01T08:40:19;0.00;53.20
67557;DHT22;54387;53.526;49.300;2023-03-01T08:42:45;0.10;53.30
67557;DHT22;54387;53.526;49.300;2023-03-01T08:45:12;0.40;53.70
67557;DHT22;54387;53.526;49.300;2023-03-01T08:47:40;0.70;52.70
67557;DHT22;54387;53.526;49.300;2023-03-01T08:50:06;0.70;51.90
67557;DHT22;54387;53.526;49.300;2023-03-01T08:52:32;0.70;52.40
67557;DHT22;54387;53.526;49.300;2023-03-01T08:54:59;0.60;52.50
67557;DHT22;54387;53.526;49.300;2023-03-01T08:57:27;0.40;52.80
67557;DHT22;54387;53.526;49.300;2023-03-01T08:59:54;0.20;52.80
67557;DHT22;54387;53.526;49.300;2023-03-01T09:02:22;0.00;53.30
67557;DHT22;54387;53.526;49.300;2023-03-01T09:04:48;-0.10;54.00
67557;DHT22;54387;53.526;49.300;2023-03-01T09:07:14;-0.20;54.00
67557;DHT22;54387;53.526;49.300;2023-03-01T09:09:40;-0.20;54.50
67557;DHT22;54387;53.526;49.300;2023-03-01T09:12:06;-0.30;54.30
67557;DHT22;54387;53.526;49.300;2023-03-01T09:14:33;-0.40;54.10
67557;DHT22;54387;53.526;49.300;2023-03-01T09:16:59;-0.30;54.70
67557;DHT22;54387;53.526;49.300;2023-03-01T09:19:28;-0.20;55.50
67557;DHT22;54387;53.526;49.300;2023-03-01T09:21:54;0.10;55.00
67557;DHT22;54387;53.526;49.300;2023-03-01T09:24:22;0.20;53.30
67557;DHT22;54387;53.526;49.300;2023-03-01T09:26:49;0.30;52.50
67557;DHT22;54387;53.526;49.300;2023-03-01T09:29:15;0.40;53.00
67557;DHT22;54387;53.526;49.300;2023-03-01T09:31:41;0.40;52.70
67557;DHT22;54387;53.526;49.300;2023-03-01T09:34:08;0.40;52.30
67557;DHT22;54387;53.526;49.300;2023-03-01T09:36:34;0.40;51.90
67557;DHT22;54387;53.526;49.300;2023-03-01T09:39:00;0.40;51.20
67557;DHT22;54387;53.526;49.300;2023-03-01T09:41:43;0.40;51.30
67557;DHT22;54387;53.526;49.300;2023-03-01T09:44:16;0.70;51.40
67557;DHT22;54387;53.526;49.300;2023-03-01T09:46:44;0.80;49.60
67557;DHT22;54387;53.526;49.300;2023-03-01T09:49:15;0.70;49.10
67557;DHT22;54387;53.526;49.300;2023-03-01T09:51:43;0.60;49.80
67557;DHT22;54387;53.526;49.300;2023-03-01T09:54:14;0.60;50.60
67557;DHT22;54387;53.526;49.300;2023-03-01T09:56:46;1.00;51.40
67557;DHT22;54387;53.526;49.300;2023-03-01T10:09:32;3.00;52.60
67557;DHT22;54387;53.526;49.300;2023-03-01T10:11:59;3.40;52.20
67557;DHT22;54387;53.526;49.300;2023-03-01T10:14:30;3.50;49.90
67557;DHT22;54387;53.526;49.300;2023-03-01T10:17:03;3.70;49.00
67557;DHT22;54387;53.526;49.300;2023-03-01T10:22:28;3.90;46.90
67557;DHT22;54387;53.526;49.300;2023-03-01T10:24:48;4.30;47.20
67557;DHT22;54387;53.526;49.300;2023-03-01T10:29:49;6.20;45.00
67557;DHT22;54387;53.526;49.300;2023-03-01T10:32:18;7.40;42.20
67557;DHT22;54387;53.526;49.300;2023-03-01T10:34:44;8.70;39.70
67557;DHT22;54387;53.526;49.300;2023-03-01T10:37:13;9.60;35.90
67557;DHT22;54387;53.526;49.300;2023-03-01T10:39:56;10.60;34.90
67557;DHT22;54387;53.526;49.300;2023-03-01T10:42:25;10.30;33.80
67557;DHT22;54387;53.526;49.300;2023-03-01T10:44:52;9.50;32.70
67557;DHT22;54387;53.526;49.300;2023-03-01T10:47:22;8.30;34.30
67557;DHT22;54387;53.526;49.300;2023-03-01T10:49:53;7.70;36.10
67557;DHT22;54387;53.526;49.300;2023-03-01T10:52:21;7.10;36.90
67557;DHT22;54387;53.526;49.300;2023-03-01T10:55:48;6.60;36.20
67557;DHT22;54387;53.526;49.300;2023-03-01T10:57:43;5.80;36.50
67557;DHT22;54387;53.526;49.300;2023-03-01T11:02:35;6.20;36.30
67557;DHT22;54387;53.526;49.300;2023-03-01T11:05:20;6.40;36.00
67557;DHT22;54387;53.526;49.300;2023-03-01T11:07:56;6.20;36.90
67557;DHT22;54387;53.526;49.300;2023-03-01T11:10:29;6.10;37.30
67557;DHT22;54387;53.526;49.300;2023-03-01T11:15:32;5.30;37.90
67557;DHT22;54387;53.526;49.300;2023-03-01T11:17:58;4.50;38.10
67557;DHT22;54387;53.526;49.300;2023-03-01T11:22:55;4.20;39.90
67557;DHT22;54387;53.526;49.300;2023-03-01T11:25:26;4.40;39.80
67557;DHT22;54387;53.526;49.300;2023-03-01T11:27:53;4.50;39.90
67557;DHT22;54387;53.526;49.300;2023-03-01T11:35:37;4.10;38.30
67557;DHT22;54387;53.526;49.300;2023-03-01T11:38:24;4.20;37.70
67557;DHT22;54387;53.526;49.300;2023-03-01T11:51:09;2.00;39.70
67557;DHT22;54387;53.526;49.300;2023-03-01T11:53:41;1.70;40.20
67557;DHT22;54387;53.526;49.300;2023-03-01T11:58:47;1.20;41.50
67557;DHT22;54387;53.526;49.300;2023-03-01T12:01:25;1.10;41.20
67557;DHT22;54387;53.526;49.300;2023-03-01T12:06:32;0.80;42.40
67557;DHT22;54387;53.526;49.300;2023-03-01T12:19:33;0.50;43.20
67557;DHT22;54387;53.526;49.300;2023-03-01T12:32:10;0.10;43.70
67557;DHT22;54387;53.526;49.300;2023-03-01T12:45:32;0.40;45.70
67557;DHT22;54387;53.526;49.300;2023-03-01T12:50:29;0.20;46.90
67557;DHT22;54387;53.526;49.300;2023-03-01T12:53:00;0.00;47.50
67557;DHT22;54387;53.526;49.300;2023-03-01T12:55:31;-0.10;47.90
67557;DHT22;54387;53.526;49.300;2023-03-01T13:02:54;-0.80;49.00
67557;DHT22;54387;53.526;49.300;2023-03-01T13:08:01;-1.00;49.20
67557;DHT22;54387;53.526;49.300;2023-03-01T13:10:31;-1.00;48.90
67557;DHT22;54387;53.526;49.300;2023-03-01T13:15:30;-0.90;48.30
67557;DHT22;54387;53.526;49.300;2023-03-01T13:18:01;-0.60;48.00
67557;DHT22;54387;53.526;49.300;2023-03-01T13:20:33;-0.20;46.80
67557;DHT22;54387;53.526;49.300;2023-03-01T13:23:01;0.40;46.10
67557;DHT22;54387;53.526;49.300;2023-03-01T13:25:27;0.60;44.10
67557;DHT22;54387;53.526;49.300;2023-03-01T13:28:32;0.40;43.40
67557;DHT22;54387;53.526;49.300;2023-03-01T13:30:41;0.10;43.70
67557;DHT22;54387;53.526;49.300;2023-03-01T13:35:49;-0.10;44.60
67557;DHT22;54387;53.526;49.300;2023-03-01T13:41:00;-0.10;43.70
67557;DHT22;54387;53.526;49.300;2023-03-01T13:43:28;-0.50;43.30
67557;DHT22;54387;53.526;49.300;2023-03-01T13:45:55;-0.90;43.70
67557;DHT22;54387;53.526;49.300;2023-03-01T13:48:24;-1.10;44.30
67557;DHT22;54387;53.526;49.300;2023-03-01T13:50:52;-1.30;44.60
67557;DHT22;54387;53.526;49.300;2023-03-01T13:53:22;-1.40;44.80
67557;DHT22;54387;53.526;49.300;2023-03-01T13:55:50;-1.40;45.00
67557;DHT22;54387;53.526;49.300;2023-03-01T13:58:25;-1.50;44.70
67557;DHT22;54387;53.526;49.300;2023-03-01T14:01:05;-1.60;44.90
67557;DHT22;54387;53.526;49.300;2023-03-01T14:03:40;-1.70;45.00
67557;DHT22;54387;53.526;49.300;2023-03-01T14:06:19;-1.90;45.50
67557;DHT22;54387;53.526;49.300;2023-03-01T14:08:46;-2.00;45.90
67557;DHT22;54387;53.526;49.300;2023-03-01T14:16:18;-2.20;47.10
67557;DHT22;54387;53.526;49.300;2023-03-01T14:19:12;-2.30;47.30
67557;DHT22;54387;53.526;49.300;2023-03-01T14:21:33;-2.30;47.60
67557;DHT22;54387;53.526;49.300;2023-03-01T14:24:02;-2.40;47.90
67557;DHT22;54387;53.526;49.300;2023-03-01T14:26:29;-2.50;48.20
67557;DHT22;54387;53.526;49.300;2023-03-01T14:28:57;-2.60;48.30
67557;DHT22;54387;53.526;49.300;2023-03-01T14:31:36;-2.70;48.50
67557;DHT22;54387;53.526;49.300;2023-03-01T14:34:03;-2.80;48.80
67557;DHT22;54387;53.526;49.300;2023-03-01T14:36:31;-2.90;49.10
67557;DHT22;54387;53.526;49.300;2023-03-01T14:38:57;-2.90;49.40
67557;DHT22;54387;53.526;49.300;2023-03-01T14:41:34;-3.00;49.50
67557;DHT22;54387;53.526;49.300;2023-03-01T14:44:02;-3.10;49.60
67557;DHT22;54387;53.526;49.300;2023-03-01T14:46:36;-3.10;49.90
67557;DHT22;54387;53.526;49.300;2023-03-01T14:51:34;-3.20;49.90
67557;DHT22;54387;53.526;49.300;2023-03-01T14:54:01;-3.30;50.10
67557;DHT22;54387;53.526;49.300;2023-03-01T14:56:27;-3.20;50.40
67557;DHT22;54387;53.526;49.300;2023-03-01T14:59:08;-3.20;50.40
67557;DHT22;54387;53.526;49.300;2023-03-01T15:01:35;-3.30;50.50
67557;DHT22;54387;53.526;49.300;2023-03-01T15:04:01;-3.30;50.60
67557;DHT22;54387;53.526;49.300;2023-03-01T15:06:28;-3.30;50.80
67557;DHT22;54387;53.526;49.300;2023-03-01T15:08:55;-3.30;51.00
67557;DHT22;54387;53.526;49.300;2023-03-01T15:11:24;-3.40;51.10
67557;DHT22;54387;53.526;49.300;2023-03-01T15:13:53;-3.40;51.50
67557;DHT22;54387;53.526;49.300;2023-03-01T15:16:27;-3.40;51.90
67557;DHT22;54387;53.526;49.300;2023-03-01T15:18:54;-3.50;52.20
67557;DHT22;54387;53.526;49.300;2023-03-01T15:21:23;-3.50;52.50
67557;DHT22;54387;53.526;49.300;2023-03-01T15:23:50;-3.60;52.90
67557;DHT22;54387;53.526;49.300;2023-03-01T15:26:25;-3.60;53.60
67557;DHT22;54387;53.526;49.300;2023-03-01T15:28:54;-3.70;54.50
67557;DHT22;54387;53.526;49.300;2023-03-01T15:31:25;-3.70;55.30
67557;DHT22;54387;53.526;49.300;2023-03-01T15:33:51;-3.70;56.10
67557;DHT22;54387;53.526;49.300;2023-03-01T15:39:00;-3.70;56.90
67557;DHT22;54387;53.526;49.300;2023-03-01T15:41:28;-3.60;57.10
67557;DHT22;54387;53.526;49.300;2023-03-01T15:43:57;-3.50;57.30
67557;DHT22;54387;53.526;49.300;2023-03-01T15:46:33;-3.50;57.20
67557;DHT22;54387;53.526;49.300;2023-03-01T15:49:04;-3.40;57.30
67557;DHT22;54387;53.526;49.300;2023-03-01T15:51:35;-3.30;57.40
67557;DHT22;54387;53.526;49.300;2023-03-01T15:54:05;-3.30;57.30
67557;DHT22;54387;53.526;49.300;2023-03-01T15:56:32;-3.20;57.20
67557;DHT22;54387;53.526;49.300;2023-03-01T15:59:00;-3.30;57.10
67557;DHT22;54387;53.526;49.300;2023-03-01T16:01:27;-3.30;57.20
67557;DHT22;54387;53.526;49.300;2023-03-01T16:03:53;-3.50;57.20
67557;DHT22;54387;53.526;49.300;2023-03-01T16:06:20;-3.50;57.50
67557;DHT22;54387;53.526;49.300;2023-03-01T16:08:46;-3.70;57.90
67557;DHT22;54387;53.526;49.300;2023-03-01T16:11:14;-3.80;58.30
67557;DHT22;54387;53.526;49.300;2023-03-01T16:13:41;-3.80;58.60
67557;DHT22;54387;53.526;49.300;2023-03-01T16:16:11;-3.90;59.00
67557;DHT22;54387;53.526;49.300;2023-03-01T16:18:38;-3.90;59.30
67557;DHT22;54387;53.526;49.300;2023-03-01T16:21:05;-3.90;59.60
67557;DHT22;54387;53.526;49.300;2023-03-01T16:23:32;-3.90;59.60
67557;DHT22;54387;53.526;49.300;2023-03-01T16:25:59;-4.00;59.40
67557;DHT22;54387;53.526;49.300;2023-03-01T16:28:25;-4.00;59.40
67557;DHT22;54387;53.526;49.300;2023-03-01T16:30:52;-4.10;59.40
67557;DHT22;54387;53.526;49.300;2023-03-01T16:33:18;-4.10;59.50
67557;DHT22;54387;53.526;49.300;2023-03-01T16:35:44;-4.10;59.70
67557;DHT22;54387;53.526;49.300;2023-03-01T16:38:10;-4.10;59.80
67557;DHT22;54387;53.526;49.300;2023-03-01T16:40:37;-4.10;59.80
67557;DHT22;54387;53.526;49.300;2023-03-01T16:43:03;-4.00;59.70
67557;DHT22;54387;53.526;49.300;2023-03-01T16:45:34;-3.90;59.40
67557;DHT22;54387;53.526;49.300;2023-03-01T16:48:06;-3.90;59.20
67557;DHT22;54387;53.526;49.300;2023-03-01T16:50:32;-3.80;58.90
67557;DHT22;54387;53.526;49.300;2023-03-01T16:52:58;-3.80;58.60
67557;DHT22;54387;53.526;49.300;2023-03-01T16:55:25;-3.70;58.60
67557;DHT22;54387;53.526;49.300;2023-03-01T16:57:51;-3.70;58.30
67557;DHT22;54387;53.526;49.300;2023-03-01T17:00:17;-3.70;57.90
67557;DHT22;54387;53.526;49.300;2023-03-01T17:02:44;-3.70;57.80
67557;DHT22;54387;53.526;49.300;2023-03-01T17:05:10;-3.60;57.70
67557;DHT22;54387;53.526;49.300;2023-03-01T17:07:39;-3.60;57.60
67557;DHT22;54387;53.526;49.300;2023-03-01T17:10:06;-3.50;57.40
67557;DHT22;54387;53.526;49.300;2023-03-01T17:12:34;-3.50;57.10
67557;DHT22;54387;53.526;49.300;2023-03-01T17:15:00;-3.40;57.10